createdAt,value
2023-05-09T00:00:39.789Z,1.63
2023-05-09T00:03:06.839Z,1.60
2023-05-09T00:05:33.847Z,2.03
2023-05-09T00:08:00.819Z,1.80
2023-05-09T00:10:27.936Z,1.80
2023-05-09T00:12:55.037Z,1.90
2023-05-09T00:15:22.020Z,1.70
2023-05-09T00:17:48.962Z,1.80
2023-05-09T00:20:16.005Z,1.73
2023-05-09T00:22:43.209Z,1.70
2023-05-09T00:25:11.269Z,1.73
2023-05-09T00:27:38.374Z,1.70
2023-05-09T00:30:06.359Z,1.70
2023-05-09T00:32:34.092Z,1.97
2023-05-09T00:35:01.102Z,1.70
2023-05-09T00:37:30.641Z,1.90
2023-05-09T00:39:57.573Z,1.97
2023-05-09T00:42:24.525Z,1.83
2023-05-09T00:44:51.415Z,2.07
2023-05-09T00:47:18.419Z,2.00
2023-05-09T00:49:45.368Z,1.93
2023-05-09T00:52:12.325Z,2.00
2023-05-09T00:54:39.512Z,1.97
2023-05-09T00:57:06.649Z,1.83
2023-05-09T00:59:33.633Z,2.07
2023-05-09T01:02:00.931Z,2.67
2023-05-09T01:04:28.076Z,2.10
2023-05-09T01:07:35.154Z,2.00
2023-05-09T01:10:14.086Z,2.27
2023-05-09T01:12:43.838Z,1.90
2023-05-09T01:15:27.395Z,1.87
2023-05-09T01:17:59.911Z,1.80
2023-05-09T01:20:33.757Z,2.20
2023-05-09T01:23:15.945Z,2.40
2023-05-09T01:25:46.611Z,2.73
2023-05-09T01:28:14.766Z,1.93
2023-05-09T01:30:45.698Z,2.13
2023-05-09T01:33:17.977Z,2.40
2023-05-09T01:35:53.350Z,2.20
2023-05-09T01:38:23.859Z,1.97
2023-05-09T01:40:54.880Z,2.10
2023-05-09T01:43:25.846Z,2.60
2023-05-09T01:45:53.829Z,2.50
2023-05-09T01:48:22.139Z,2.50
2023-05-09T01:50:49.183Z,2.33
2023-05-09T01:53:17.801Z,2.10
2023-05-09T01:55:45.990Z,1.97
2023-05-09T01:58:13.441Z,2.10
2023-05-09T02:00:41.158Z,2.70
2023-05-09T02:03:09.604Z,2.30
2023-05-09T02:05:37.500Z,2.77
2023-05-09T02:08:04.852Z,2.30
2023-05-09T02:10:32.744Z,2.80
2023-05-09T02:12:59.757Z,2.63
2023-05-09T02:15:27.448Z,2.73
2023-05-09T02:17:54.366Z,2.70
2023-05-09T02:20:23.444Z,2.67
2023-05-09T02:22:50.946Z,3.23
2023-05-09T02:25:18.742Z,3.20
2023-05-09T02:27:46.858Z,3.67
2023-05-09T02:30:25.292Z,3.87
2023-05-09T02:32:56.876Z,3.30
2023-05-09T02:35:26.205Z,3.53
2023-05-09T02:37:54.054Z,3.70
2023-05-09T02:40:22.342Z,3.93
2023-05-09T02:42:49.271Z,4.30
2023-05-09T02:45:16.360Z,4.03
2023-05-09T02:47:43.575Z,4.60
2023-05-09T02:50:10.938Z,3.60
2023-05-09T02:52:38.166Z,4.40
2023-05-09T02:55:07.381Z,4.00
2023-05-09T02:57:34.521Z,3.93
2023-05-09T03:00:01.433Z,4.87
2023-05-09T03:02:28.675Z,3.97
2023-05-09T03:04:55.604Z,4.30
2023-05-09T03:07:22.582Z,4.43
2023-05-09T03:09:49.467Z,4.03
2023-05-09T03:12:16.388Z,4.30
2023-05-09T03:14:43.312Z,4.30
2023-05-09T03:17:10.284Z,4.30
2023-05-09T03:19:37.156Z,4.13
2023-05-09T03:22:04.312Z,4.30
2023-05-09T03:24:31.218Z,4.57
2023-05-09T03:26:58.165Z,4.70
2023-05-09T03:29:25.910Z,4.67
2023-05-09T03:31:53.004Z,4.80
2023-05-09T03:34:20.091Z,4.80
2023-05-09T03:36:47.007Z,4.43
2023-05-09T03:39:13.950Z,4.83
2023-05-09T03:41:41.814Z,4.63
2023-05-09T03:44:08.746Z,4.67
2023-05-09T03:46:35.753Z,4.10
2023-05-09T03:49:04.388Z,5.27
2023-05-09T03:51:32.326Z,4.27
2023-05-09T03:54:00.110Z,4.77
2023-05-09T03:56:27.157Z,4.03
2023-05-09T03:58:54.056Z,3.93
2023-05-09T04:01:21.236Z,3.93
2023-05-09T04:03:48.283Z,3.87
2023-05-09T04:06:15.637Z,3.83
2023-05-09T04:08:42.660Z,4.47
2023-05-09T04:11:09.584Z,4.47
2023-05-09T04:13:36.580Z,4.07
2023-05-09T04:16:03.629Z,3.93
2023-05-09T04:18:31.361Z,4.37
2023-05-09T04:20:58.300Z,3.47
2023-05-09T04:23:25.208Z,4.40
2023-05-09T04:25:53.936Z,4.00
2023-05-09T04:28:20.837Z,2.87
2023-05-09T04:30:47.815Z,3.67
2023-05-09T04:33:14.837Z,3.83
2023-05-09T04:35:41.735Z,3.83
2023-05-09T04:38:08.791Z,3.73
2023-05-09T04:40:36.335Z,3.53
2023-05-09T04:43:03.364Z,3.90
2023-05-09T04:45:30.324Z,3.20
2023-05-09T04:47:57.296Z,3.23
2023-05-09T04:50:24.236Z,3.57
2023-05-09T04:52:51.185Z,3.20
2023-05-09T04:55:18.118Z,3.40
2023-05-09T04:57:45.072Z,3.30
2023-05-09T05:00:12.824Z,2.73
2023-05-09T05:02:39.927Z,3.47
2023-05-09T05:05:13.313Z,3.27
2023-05-09T05:07:40.568Z,3.20
2023-05-09T05:10:08.097Z,2.87
2023-05-09T05:12:35.009Z,2.53
2023-05-09T05:15:02.097Z,2.97
2023-05-09T05:17:29.601Z,2.80
2023-05-09T05:19:56.637Z,2.67
2023-05-09T05:22:24.290Z,2.63
2023-05-09T05:24:51.287Z,2.70
2023-05-09T05:27:18.201Z,2.53
2023-05-09T05:29:45.083Z,3.07
2023-05-09T05:32:12.122Z,2.83
2023-05-09T05:34:39.551Z,2.70
2023-05-09T05:37:06.543Z,2.87
2023-05-09T05:39:33.687Z,2.57
2023-05-09T05:42:00.836Z,2.57
2023-05-09T05:44:27.752Z,2.67
2023-05-09T05:46:54.644Z,2.50
2023-05-09T05:49:21.579Z,2.83
2023-05-09T05:51:48.506Z,2.70
2023-05-09T05:54:15.421Z,2.47
2023-05-09T05:56:42.296Z,2.57
2023-05-09T05:59:11.313Z,2.53
2023-05-09T06:01:39.719Z,2.67
2023-05-09T06:04:06.741Z,2.67
2023-05-09T06:06:34.250Z,2.40
2023-05-09T06:09:01.200Z,2.43
2023-05-09T06:11:28.185Z,2.53
2023-05-09T06:13:55.166Z,2.20
2023-05-09T06:16:22.328Z,2.53
2023-05-09T06:18:49.469Z,2.40
2023-05-09T06:21:16.457Z,2.57
2023-05-09T06:23:57.808Z,2.50
2023-05-09T06:26:30.458Z,2.37
2023-05-09T06:28:57.347Z,2.50
2023-05-09T06:31:25.594Z,2.40
2023-05-09T06:33:53.022Z,2.40
2023-05-09T06:36:20.132Z,2.30
2023-05-09T06:38:47.191Z,2.77
2023-05-09T06:41:14.158Z,2.40
2023-05-09T06:43:41.115Z,2.00
2023-05-09T06:46:08.125Z,2.23
2023-05-09T06:48:35.356Z,2.43
2023-05-09T06:51:02.293Z,2.13
2023-05-09T06:53:29.508Z,2.60
2023-05-09T06:55:56.566Z,2.20
2023-05-09T06:58:23.828Z,2.33
2023-05-09T07:00:51.491Z,2.53
2023-05-09T07:03:18.409Z,2.40
2023-05-09T07:05:45.664Z,2.00
2023-05-09T07:08:12.719Z,2.20
2023-05-09T07:10:39.844Z,2.53
2023-05-09T07:13:06.857Z,2.03
2023-05-09T07:15:41.835Z,2.20
2023-05-09T07:18:09.449Z,2.40
2023-05-09T07:20:36.575Z,2.07
2023-05-09T07:23:04.568Z,1.90
2023-05-09T07:25:31.864Z,1.83
2023-05-09T07:27:59.067Z,1.73
2023-05-09T07:30:26.162Z,2.07
2023-05-09T07:32:53.394Z,1.70
2023-05-09T07:35:20.989Z,2.20
2023-05-09T07:37:47.941Z,1.90
2023-05-09T07:40:15.493Z,2.20
2023-05-09T07:42:49.421Z,2.37
2023-05-09T07:45:17.070Z,2.10
2023-05-09T07:47:44.623Z,1.97
2023-05-09T07:50:11.607Z,1.90
2023-05-09T07:52:38.493Z,2.20
2023-05-09T07:55:05.829Z,1.97
2023-05-09T07:57:32.950Z,1.73
2023-05-09T07:59:59.991Z,1.87
2023-05-09T08:02:27.161Z,2.17
2023-05-09T08:04:54.230Z,2.10
2023-05-09T08:07:21.225Z,2.03
2023-05-09T08:09:48.116Z,1.70
2023-05-09T08:12:15.091Z,2.03
2023-05-09T08:14:42.022Z,1.70
2023-05-09T08:17:08.960Z,1.63
2023-05-09T08:19:35.813Z,1.60
2023-05-09T08:22:03.148Z,1.33
2023-05-09T08:24:30.607Z,1.70
2023-05-09T08:26:57.601Z,1.80
2023-05-09T08:29:24.572Z,1.70
2023-05-09T08:31:51.693Z,1.70
2023-05-09T08:34:18.617Z,1.80
2023-05-09T08:36:47.047Z,1.67
2023-05-09T08:39:14.120Z,1.60
2023-05-09T08:41:42.365Z,1.70
2023-05-09T08:44:09.571Z,1.70
2023-05-09T08:46:39.033Z,1.70
2023-05-09T08:49:09.279Z,1.50
2023-05-09T08:51:36.616Z,1.90
2023-05-09T08:54:03.990Z,1.63
2023-05-09T08:56:31.730Z,1.87
2023-05-09T08:58:59.154Z,1.70
2023-05-09T09:01:27.714Z,1.67
2023-05-09T09:03:55.074Z,1.90
2023-05-09T09:06:23.494Z,1.43
2023-05-09T09:08:50.980Z,1.70
2023-05-09T09:11:18.735Z,1.77
2023-05-09T09:13:46.971Z,1.60
2023-05-09T09:16:20.718Z,1.70
2023-05-09T09:18:48.802Z,1.67
2023-05-09T09:21:18.079Z,1.53
2023-05-09T09:23:47.610Z,1.70
2023-05-09T09:26:14.987Z,1.20
2023-05-09T09:28:42.973Z,1.47
2023-05-09T09:31:24.202Z,1.53
2023-05-09T09:33:51.842Z,1.80
2023-05-09T09:36:35.245Z,1.40
2023-05-09T09:39:07.246Z,1.87
2023-05-09T09:41:36.060Z,1.77
2023-05-09T09:44:13.183Z,1.83
2023-05-09T09:46:45.013Z,1.73
2023-05-09T09:49:13.889Z,1.83
2023-05-09T09:51:44.657Z,1.70
2023-05-09T09:54:13.065Z,1.83
2023-05-09T09:56:41.778Z,1.90
2023-05-09T09:59:13.317Z,1.77
2023-05-09T10:02:00.565Z,1.77
2023-05-09T10:04:32.381Z,1.90
2023-05-09T10:07:03.576Z,1.93
2023-05-09T10:09:30.611Z,1.90
2023-05-09T10:12:03.167Z,1.83
2023-05-09T10:14:34.234Z,1.83
2023-05-09T10:17:04.017Z,1.73
2023-05-09T10:19:31.916Z,1.80
2023-05-09T10:22:05.905Z,1.90
2023-05-09T10:24:43.877Z,1.63
2023-05-09T10:27:11.899Z,1.70
2023-05-09T10:29:45.813Z,1.60
2023-05-09T10:32:32.191Z,1.70
2023-05-09T10:35:05.271Z,1.60
2023-05-09T10:37:33.561Z,1.88
2023-05-09T10:40:02.981Z,1.70
2023-05-09T10:42:31.433Z,1.63
2023-05-09T10:44:58.466Z,2.13
2023-05-09T10:47:29.029Z,1.50
2023-05-09T10:49:56.510Z,2.03
2023-05-09T10:52:23.610Z,2.13
2023-05-09T10:55:04.678Z,1.90
2023-05-09T10:57:32.553Z,1.73
2023-05-09T11:00:00.600Z,1.90
2023-05-09T11:02:32.678Z,1.80
2023-05-09T11:05:19.625Z,1.50
2023-05-09T11:07:46.597Z,1.60
2023-05-09T11:10:18.106Z,1.67
2023-05-09T11:12:59.154Z,1.50
2023-05-09T11:15:27.863Z,1.60
2023-05-09T11:18:09.469Z,1.70
2023-05-09T11:20:42.970Z,1.67
2023-05-09T11:23:13.665Z,1.77
2023-05-09T11:25:41.296Z,1.83
2023-05-09T11:28:08.207Z,1.80
2023-05-09T11:30:43.444Z,1.60
2023-05-09T11:33:30.222Z,2.00
2023-05-09T11:36:19.171Z,1.70
2023-05-09T11:38:48.992Z,1.65
2023-05-09T11:41:16.468Z,1.60
2023-05-09T11:43:44.991Z,2.00
2023-05-09T11:46:12.831Z,1.77
2023-05-09T11:48:41.927Z,1.80
2023-05-09T11:51:18.917Z,1.83
2023-05-09T11:53:54.120Z,2.10
2023-05-09T11:56:23.141Z,1.90
2023-05-09T11:58:51.931Z,2.10
2023-05-09T12:01:19.667Z,2.03
2023-05-09T12:03:47.065Z,2.70
2023-05-09T12:06:18.511Z,2.35
2023-05-09T12:08:46.400Z,2.20
2023-05-09T12:11:15.025Z,2.47
2023-05-09T12:13:49.664Z,2.30
2023-05-09T12:16:17.735Z,2.40
2023-05-09T12:18:49.960Z,2.40
2023-05-09T12:21:18.193Z,2.43
2023-05-09T12:23:47.892Z,2.40
2023-05-09T12:26:16.975Z,2.70
2023-05-09T12:28:44.033Z,2.58
2023-05-09T12:31:11.730Z,2.92
2023-05-09T12:33:39.441Z,2.20
2023-05-09T12:36:10.294Z,2.70
2023-05-09T12:38:38.242Z,2.50
2023-05-09T12:41:18.753Z,2.78
2023-05-09T12:43:56.916Z,3.00
2023-05-09T12:46:24.257Z,3.20
2023-05-09T12:48:51.774Z,3.05
2023-05-09T12:51:20.813Z,2.83
2023-05-09T12:53:48.644Z,3.08
2023-05-09T12:56:18.113Z,3.20
2023-05-09T12:58:52.893Z,2.80
2023-05-09T13:01:21.582Z,2.80
2023-05-09T13:03:53.153Z,2.80
2023-05-09T13:06:21.188Z,2.53
2023-05-09T13:08:59.050Z,2.83
2023-05-09T13:11:26.913Z,2.53
2023-05-09T13:13:57.068Z,2.65
2023-05-09T13:16:24.244Z,2.50
2023-05-09T13:18:51.369Z,2.63
2023-05-09T13:21:18.395Z,2.50
2023-05-09T13:23:45.734Z,2.13
2023-05-09T13:26:12.887Z,2.63
2023-05-09T13:28:39.842Z,2.22
2023-05-09T13:31:08.090Z,2.30
2023-05-09T13:33:35.306Z,2.63
2023-05-09T13:36:02.400Z,2.40
2023-05-09T13:38:32.175Z,2.40
2023-05-09T13:41:00.132Z,2.57
2023-05-09T13:43:27.465Z,2.13
2023-05-09T13:45:54.492Z,2.45
2023-05-09T13:48:21.471Z,2.37
2023-05-09T13:50:48.604Z,2.23
2023-05-09T13:53:15.560Z,2.03
2023-05-09T13:55:42.917Z,2.13
2023-05-09T13:58:09.872Z,2.13
2023-05-09T14:00:36.939Z,1.97
2023-05-09T14:03:04.147Z,2.35
2023-05-09T14:05:34.745Z,1.97
2023-05-09T14:08:01.830Z,2.70
2023-05-09T14:10:29.101Z,1.83
2023-05-09T14:12:57.123Z,2.17
2023-05-09T14:15:24.148Z,2.17
2023-05-09T14:17:51.185Z,1.97
2023-05-09T14:20:18.380Z,2.15
2023-05-09T14:22:45.369Z,1.80
2023-05-09T14:25:12.538Z,1.90
2023-05-09T14:27:39.540Z,2.30
2023-05-09T14:30:07.496Z,2.30
2023-05-09T14:32:34.471Z,2.27
2023-05-09T14:35:01.494Z,2.77
2023-05-09T14:37:29.500Z,2.20
2023-05-09T14:39:56.618Z,2.50
2023-05-09T14:42:23.768Z,2.53
2023-05-09T14:44:50.843Z,2.50
2023-05-09T14:47:17.845Z,2.93
2023-05-09T14:49:44.798Z,2.90
2023-05-09T14:52:12.163Z,3.13
2023-05-09T14:54:39.148Z,2.97
2023-05-09T14:57:07.554Z,2.90
2023-05-09T14:59:36.851Z,3.10
2023-05-09T15:02:04.294Z,3.40
2023-05-09T15:04:31.567Z,3.40
2023-05-09T15:06:59.160Z,3.33
2023-05-09T15:09:26.869Z,3.10
2023-05-09T15:11:55.049Z,3.77
2023-05-09T15:14:22.453Z,3.30
2023-05-09T15:16:52.262Z,2.90
2023-05-09T15:19:19.456Z,3.37
2023-05-09T15:21:46.441Z,3.00
2023-05-09T15:24:13.359Z,3.70
2023-05-09T15:26:40.334Z,3.13
2023-05-09T15:29:07.316Z,3.17
2023-05-09T15:31:39.044Z,2.70
2023-05-09T15:34:05.947Z,3.10
2023-05-09T15:36:34.036Z,2.90
2023-05-09T15:39:01.066Z,3.10
2023-05-09T15:41:28.678Z,3.33
2023-05-09T15:43:55.679Z,3.17
2023-05-09T15:46:22.797Z,3.70
2023-05-09T15:48:50.471Z,2.63
2023-05-09T15:51:17.493Z,3.30
2023-05-09T15:53:44.414Z,3.30
2023-05-09T15:56:11.389Z,3.13
2023-05-09T15:58:39.057Z,3.13
2023-05-09T16:01:08.006Z,2.97
2023-05-09T16:03:35.331Z,2.97
2023-05-09T16:06:03.265Z,3.23
2023-05-09T16:08:30.232Z,3.00
2023-05-09T16:11:00.887Z,2.77
2023-05-09T16:13:28.326Z,2.87
2023-05-09T16:15:55.713Z,2.93
2023-05-09T16:18:22.802Z,3.03
2023-05-09T16:20:49.816Z,2.60
2023-05-09T16:23:16.827Z,2.53
2023-05-09T16:25:44.968Z,2.77
2023-05-09T16:28:12.210Z,3.00
2023-05-09T16:30:39.092Z,2.70
2023-05-09T16:33:06.074Z,2.43
2023-05-09T16:35:34.114Z,2.90
2023-05-09T16:38:01.079Z,2.87
2023-05-09T16:40:28.581Z,2.47
2023-05-09T16:42:55.852Z,2.57
2023-05-09T16:45:22.818Z,2.40
2023-05-09T16:47:51.138Z,2.90
2023-05-09T16:50:18.310Z,2.80
2023-05-09T16:52:45.313Z,2.30
2023-05-09T16:55:12.420Z,2.10
2023-05-09T16:57:39.396Z,2.00
2023-05-09T17:00:07.967Z,2.10
2023-05-09T17:02:36.341Z,2.33
2023-05-09T17:05:04.460Z,2.23
2023-05-09T17:07:32.266Z,2.10
2023-05-09T17:09:59.277Z,2.23
2023-05-09T17:12:27.560Z,2.30
2023-05-09T17:14:54.515Z,2.40
2023-05-09T17:17:21.400Z,2.50
2023-05-09T17:19:48.554Z,2.17
2023-05-09T17:22:15.526Z,2.50
2023-05-09T17:24:42.513Z,2.40
2023-05-09T17:27:11.524Z,2.20
2023-05-09T17:29:38.526Z,2.67
2023-05-09T17:32:05.855Z,2.50
2023-05-09T17:34:33.546Z,2.50
2023-05-09T17:37:02.264Z,2.03
2023-05-09T17:39:29.427Z,2.43
2023-05-09T17:41:56.402Z,2.60
2023-05-09T17:44:23.988Z,2.30
2023-05-09T17:46:51.210Z,2.47
2023-05-09T17:49:18.400Z,2.63
2023-05-09T17:51:45.424Z,2.57
2023-05-09T17:54:12.982Z,2.57
2023-05-09T17:56:39.991Z,2.50
2023-05-09T17:59:07.824Z,2.60
2023-05-09T18:01:34.978Z,2.30
2023-05-09T18:04:02.126Z,2.73
2023-05-09T18:06:29.375Z,2.57
2023-05-09T18:08:56.343Z,2.70
2023-05-09T18:11:23.248Z,2.63
2023-05-09T18:13:50.475Z,2.13
2023-05-09T18:16:17.557Z,2.73
2023-05-09T18:18:44.947Z,2.13
2023-05-09T18:21:12.039Z,2.87
2023-05-09T18:23:39.056Z,2.80
2023-05-09T18:26:06.025Z,2.60
2023-05-09T18:28:39.200Z,2.47
2023-05-09T18:31:09.387Z,2.77
2023-05-09T18:33:39.494Z,2.53
2023-05-09T18:36:08.955Z,2.57
2023-05-09T18:38:38.348Z,2.17
2023-05-09T18:41:09.604Z,2.37
2023-05-09T18:43:38.790Z,2.57
2023-05-09T18:46:05.871Z,2.57
2023-05-09T18:48:33.497Z,2.63
2023-05-09T18:51:00.484Z,2.63
2023-05-09T18:53:28.865Z,2.60
2023-05-09T18:55:56.924Z,2.50
2023-05-09T18:58:24.796Z,2.63
2023-05-09T19:00:52.996Z,2.53
2023-05-09T19:03:20.872Z,2.30
2023-05-09T19:05:47.874Z,2.67
2023-05-09T19:08:15.009Z,2.70
2023-05-09T19:10:42.462Z,2.93
2023-05-09T19:13:09.420Z,2.80
2023-05-09T19:15:36.539Z,3.00
2023-05-09T19:18:03.518Z,2.63
2023-05-09T19:20:31.124Z,2.60
2023-05-09T19:22:58.653Z,2.70
2023-05-09T19:25:26.170Z,2.90
2023-05-09T19:27:53.234Z,2.90
2023-05-09T19:30:20.859Z,2.30
2023-05-09T19:32:48.141Z,2.57
2023-05-09T19:35:15.314Z,2.50
2023-05-09T19:37:42.301Z,2.43
2023-05-09T19:40:09.560Z,2.63
2023-05-09T19:42:37.801Z,2.47
2023-05-09T19:45:05.320Z,2.73
2023-05-09T19:47:32.293Z,2.50
2023-05-09T19:49:59.556Z,2.47
2023-05-09T19:52:26.606Z,2.93
2023-05-09T19:54:54.282Z,2.40
2023-05-09T19:57:21.251Z,3.27
2023-05-09T19:59:48.159Z,2.80
2023-05-09T20:02:15.526Z,2.43
2023-05-09T20:04:49.544Z,2.90
2023-05-09T20:07:17.389Z,3.00
2023-05-09T20:09:44.338Z,2.80
2023-05-09T20:12:11.415Z,3.13
2023-05-09T20:14:38.317Z,2.90
2023-05-09T20:17:07.964Z,2.97
2023-05-09T20:19:35.055Z,2.70
2023-05-09T20:22:02.645Z,2.93
2023-05-09T20:24:31.420Z,2.97
2023-05-09T20:26:58.554Z,2.73
2023-05-09T20:29:26.215Z,2.60
2023-05-09T20:31:53.202Z,2.63
2023-05-09T20:34:21.455Z,3.30
2023-05-09T20:36:52.206Z,2.40
2023-05-09T20:39:20.132Z,2.30
2023-05-09T20:41:48.535Z,2.80
2023-05-09T20:44:16.837Z,3.10
2023-05-09T20:46:45.013Z,3.07
2023-05-09T20:49:12.572Z,2.80
2023-05-09T20:51:39.625Z,2.97
2023-05-09T20:54:06.879Z,2.60
2023-05-09T20:56:35.574Z,3.13
2023-05-09T20:59:04.186Z,2.73
2023-05-09T21:01:32.536Z,2.50
2023-05-09T21:03:59.667Z,2.77
2023-05-09T21:06:26.695Z,3.00
2023-05-09T21:08:53.612Z,2.60
2023-05-09T21:11:21.963Z,2.63
2023-05-09T21:13:49.116Z,2.53
2023-05-09T21:16:16.493Z,2.80
2023-05-09T21:18:43.465Z,2.73
2023-05-09T21:21:10.465Z,2.83
2023-05-09T21:23:37.459Z,2.63
2023-05-09T21:26:04.451Z,2.53
2023-05-09T21:28:31.505Z,2.53
2023-05-09T21:31:00.783Z,2.63
2023-05-09T21:33:28.053Z,2.63
2023-05-09T21:35:54.978Z,2.73
2023-05-09T21:38:21.928Z,2.70
2023-05-09T21:40:51.245Z,2.87
2023-05-09T21:43:19.209Z,3.30
2023-05-09T21:45:46.256Z,3.23
2023-05-09T21:48:14.341Z,3.30
2023-05-09T21:50:44.477Z,3.10
2023-05-09T21:53:12.203Z,2.83
2023-05-09T21:55:39.143Z,3.23
2023-05-09T21:58:06.140Z,3.07
2023-05-09T22:00:33.117Z,3.33
2023-05-09T22:03:02.089Z,3.00
2023-05-09T22:05:29.142Z,3.00
2023-05-09T22:07:56.060Z,3.60
2023-05-09T22:10:23.101Z,3.20
2023-05-09T22:12:50.057Z,3.10
2023-05-09T22:15:17.097Z,3.63
2023-05-09T22:17:44.498Z,3.10
2023-05-09T22:20:12.054Z,3.30
2023-05-09T22:22:38.984Z,3.40
2023-05-09T22:25:06.385Z,3.53
2023-05-09T22:27:33.448Z,3.70
2023-05-09T22:30:00.461Z,3.03
2023-05-09T22:32:27.519Z,3.23
2023-05-09T22:34:54.447Z,3.60
2023-05-09T22:37:21.639Z,3.70
2023-05-09T22:39:48.603Z,3.27
2023-05-09T22:42:16.131Z,3.30
2023-05-09T22:44:43.268Z,3.27
2023-05-09T22:47:10.492Z,3.43
2023-05-09T22:49:37.538Z,3.97
2023-05-09T22:52:04.697Z,3.13
2023-05-09T22:54:31.715Z,4.03
2023-05-09T22:56:58.682Z,3.33
2023-05-09T22:59:25.756Z,4.00
2023-05-09T23:01:53.578Z,3.50
2023-05-09T23:04:20.687Z,3.40
2023-05-09T23:06:47.706Z,3.73
2023-05-09T23:09:15.082Z,3.03
2023-05-09T23:11:42.353Z,3.37
2023-05-09T23:14:09.480Z,3.60
2023-05-09T23:16:36.608Z,3.83
2023-05-09T23:19:03.543Z,3.37
2023-05-09T23:21:30.530Z,3.57
2023-05-09T23:23:57.412Z,3.90
2023-05-09T23:26:24.319Z,3.63
2023-05-09T23:28:51.376Z,3.87
2023-05-09T23:31:18.498Z,3.67
2023-05-09T23:33:45.428Z,3.97
2023-05-09T23:36:12.521Z,3.57
2023-05-09T23:38:39.435Z,4.03
2023-05-09T23:41:06.389Z,3.67
2023-05-09T23:43:34.259Z,4.07
2023-05-09T23:46:01.337Z,3.93
2023-05-09T23:48:28.260Z,3.90
2023-05-09T23:50:55.192Z,4.07
2023-05-09T23:53:22.324Z,3.87
2023-05-09T23:55:49.424Z,4.33
2023-05-09T23:58:16.515Z,3.90
